CheckWX is a tool to help pilots better visualize weather data.  It is not intended as a substitute for an official pre-flight weather briefing.

17:16:54 UTC

EGKB TAF
London Biggin Hill Airport
London, United Kingdom
TAF EGKB 181359Z 1815/1822 24012KT 9999 SCT035 PROB30 TEMPO 1815/1818 24015G25KT

Aug-18@
15:00 UTC

Aug-18 @ 15:00 UTC

Aug-18@
22:00 UTC

Aug-18 @ 22:00 UTC

TAF EGKB 181359Z 1815/1822 24012KT 9999 SCT035
Wind
  • 240° at 12 KTS
Cloud Levels
  • Scattered at 3,500' AGL

Aug-18@
15:00 UTC

Aug-18 @ 15:00 UTC

Aug-18@
18:00 UTC

Aug-18 @ 18:00 UTC

PROB30 TEMPO 1815/1818 24015G25KT

Temporary - 30% Likelihood

Temporary - 30% Likelihood during this time.

Wind
  • 240° at 15 KTS
  • {Gusting to 25 KTS